sensor_id;sensor_type;location;lat;lon;timestamp;P1;durP1;ratioP1;P2;durP2;ratioP2
45806;SDS011;31507;51.494;7.518;2022-08-21T00:01:43;15.35;;;5.95;;
45806;SDS011;31507;51.494;7.518;2022-08-21T00:04:10;15.82;;;5.50;;
45806;SDS011;31507;51.494;7.518;2022-08-21T00:06:36;16.73;;;5.50;;
45806;SDS011;31507;51.494;7.518;2022-08-21T00:09:02;14.55;;;5.90;;
45806;SDS011;31507;51.494;7.518;2022-08-21T00:11:31;14.00;;;5.63;;
45806;SDS011;31507;51.494;7.518;2022-08-21T00:13:58;17.30;;;5.45;;
45806;SDS011;31507;51.494;7.518;2022-08-21T00:16:24;13.73;;;5.53;;
45806;SDS011;31507;51.494;7.518;2022-08-21T00:18:50;15.32;;;5.60;;
45806;SDS011;31507;51.494;7.518;2022-08-21T00:21:16;17.00;;;6.32;;
45806;SDS011;31507;51.494;7.518;2022-08-21T00:23:42;15.63;;;6.47;;
45806;SDS011;31507;51.494;7.518;2022-08-21T00:26:08;16.15;;;5.82;;
45806;SDS011;31507;51.494;7.518;2022-08-21T00:28:34;19.55;;;6.03;;
45806;SDS011;31507;51.494;7.518;2022-08-21T00:31:00;14.32;;;5.43;;
45806;SDS011;31507;51.494;7.518;2022-08-21T00:33:29;13.38;;;5.68;;
45806;SDS011;31507;51.494;7.518;2022-08-21T00:35:56;12.98;;;5.13;;
45806;SDS011;31507;51.494;7.518;2022-08-21T00:38:21;15.45;;;5.60;;
45806;SDS011;31507;51.494;7.518;2022-08-21T00:40:50;11.55;;;4.80;;
45806;SDS011;31507;51.494;7.518;2022-08-21T00:43:20;12.85;;;4.70;;
45806;SDS011;31507;51.494;7.518;2022-08-21T00:45:48;19.20;;;5.63;;
45806;SDS011;31507;51.494;7.518;2022-08-21T00:48:14;14.07;;;4.93;;
45806;SDS011;31507;51.494;7.518;2022-08-21T00:50:49;17.40;;;5.30;;
45806;SDS011;31507;51.494;7.518;2022-08-21T00:53:28;12.32;;;5.00;;
45806;SDS011;31507;51.494;7.518;2022-08-21T00:55:55;15.68;;;4.82;;
45806;SDS011;31507;51.494;7.518;2022-08-21T00:58:22;22.25;;;5.53;;
45806;SDS011;31507;51.494;7.518;2022-08-21T01:00:50;18.05;;;5.35;;
45806;SDS011;31507;51.494;7.518;2022-08-21T01:03:18;18.35;;;4.82;;
45806;SDS011;31507;51.494;7.518;2022-08-21T01:05:46;10.85;;;4.20;;
45806;SDS011;31507;51.494;7.518;2022-08-21T01:08:13;10.20;;;4.22;;
45806;SDS011;31507;51.494;7.518;2022-08-21T01:10:40;14.80;;;4.82;;
45806;SDS011;31507;51.494;7.518;2022-08-21T01:13:07;13.30;;;4.45;;
45806;SDS011;31507;51.494;7.518;2022-08-21T01:15:36;16.42;;;4.53;;
45806;SDS011;31507;51.494;7.518;2022-08-21T01:18:04;13.52;;;4.43;;
45806;SDS011;31507;51.494;7.518;2022-08-21T01:20:32;12.82;;;4.63;;
45806;SDS011;31507;51.494;7.518;2022-08-21T01:23:00;13.40;;;6.05;;
45806;SDS011;31507;51.494;7.518;2022-08-21T01:25:30;20.83;;;5.25;;
45806;SDS011;31507;51.494;7.518;2022-08-21T01:27:57;14.48;;;6.30;;
45806;SDS011;31507;51.494;7.518;2022-08-21T01:30:33;13.50;;;5.78;;
45806;SDS011;31507;51.494;7.518;2022-08-21T01:33:01;19.52;;;6.72;;
45806;SDS011;31507;51.494;7.518;2022-08-21T01:35:27;13.52;;;6.03;;
45806;SDS011;31507;51.494;7.518;2022-08-21T01:37:52;15.23;;;6.15;;
45806;SDS011;31507;51.494;7.518;2022-08-21T01:40:18;17.30;;;6.00;;
45806;SDS011;31507;51.494;7.518;2022-08-21T01:42:44;16.92;;;5.95;;
45806;SDS011;31507;51.494;7.518;2022-08-21T01:45:11;13.65;;;5.65;;
45806;SDS011;31507;51.494;7.518;2022-08-21T01:47:37;20.83;;;6.13;;
45806;SDS011;31507;51.494;7.518;2022-08-21T01:50:05;18.08;;;6.72;;
45806;SDS011;31507;51.494;7.518;2022-08-21T01:52:33;19.15;;;6.47;;
45806;SDS011;31507;51.494;7.518;2022-08-21T01:54:59;12.43;;;6.20;;
45806;SDS011;31507;51.494;7.518;2022-08-21T01:57:25;14.88;;;5.82;;
45806;SDS011;31507;51.494;7.518;2022-08-21T01:59:51;12.40;;;5.82;;
45806;SDS011;31507;51.494;7.518;2022-08-21T02:02:16;16.40;;;6.80;;
45806;SDS011;31507;51.494;7.518;2022-08-21T02:04:42;13.38;;;6.25;;
45806;SDS011;31507;51.494;7.518;2022-08-21T02:07:08;16.92;;;6.95;;
45806;SDS011;31507;51.494;7.518;2022-08-21T02:09:34;14.73;;;6.88;;
45806;SDS011;31507;51.494;7.518;2022-08-21T02:11:59;17.15;;;8.13;;
45806;SDS011;31507;51.494;7.518;2022-08-21T02:14:25;16.35;;;8.13;;
45806;SDS011;31507;51.494;7.518;2022-08-21T02:16:51;18.90;;;7.85;;
45806;SDS011;31507;51.494;7.518;2022-08-21T02:19:16;16.33;;;7.63;;
45806;SDS011;31507;51.494;7.518;2022-08-21T02:21:42;16.25;;;8.25;;
45806;SDS011;31507;51.494;7.518;2022-08-21T02:24:09;15.98;;;7.32;;
45806;SDS011;31507;51.494;7.518;2022-08-21T02:26:35;18.55;;;7.50;;
45806;SDS011;31507;51.494;7.518;2022-08-21T02:29:01;13.07;;;7.88;;
45806;SDS011;31507;51.494;7.518;2022-08-21T02:31:28;30.98;;;9.18;;
45806;SDS011;31507;51.494;7.518;2022-08-21T02:33:54;22.08;;;9.07;;
45806;SDS011;31507;51.494;7.518;2022-08-21T02:36:20;17.35;;;8.80;;
45806;SDS011;31507;51.494;7.518;2022-08-21T02:38:46;16.33;;;8.63;;
45806;SDS011;31507;51.494;7.518;2022-08-21T02:41:16;20.25;;;9.30;;
45806;SDS011;31507;51.494;7.518;2022-08-21T02:43:43;17.27;;;10.30;;
45806;SDS011;31507;51.494;7.518;2022-08-21T02:46:10;29.65;;;11.00;;
45806;SDS011;31507;51.494;7.518;2022-08-21T02:48:38;15.23;;;9.40;;
45806;SDS011;31507;51.494;7.518;2022-08-21T02:51:05;22.75;;;11.57;;
45806;SDS011;31507;51.494;7.518;2022-08-21T02:53:36;26.83;;;10.95;;
45806;SDS011;31507;51.494;7.518;2022-08-21T02:56:04;24.25;;;11.88;;
45806;SDS011;31507;51.494;7.518;2022-08-21T02:58:33;28.90;;;11.65;;
45806;SDS011;31507;51.494;7.518;2022-08-21T03:01:04;24.90;;;13.10;;
45806;SDS011;31507;51.494;7.518;2022-08-21T03:03:30;30.15;;;13.30;;
45806;SDS011;31507;51.494;7.518;2022-08-21T03:05:56;27.70;;;12.98;;
45806;SDS011;31507;51.494;7.518;2022-08-21T03:08:22;30.52;;;13.32;;
45806;SDS011;31507;51.494;7.518;2022-08-21T03:10:49;18.65;;;12.02;;
45806;SDS011;31507;51.494;7.518;2022-08-21T03:13:16;25.55;;;12.88;;
45806;SDS011;31507;51.494;7.518;2022-08-21T03:15:45;24.92;;;13.45;;
45806;SDS011;31507;51.494;7.518;2022-08-21T03:18:11;27.95;;;14.05;;
45806;SDS011;31507;51.494;7.518;2022-08-21T03:20:38;25.52;;;13.55;;
45806;SDS011;31507;51.494;7.518;2022-08-21T03:23:05;33.95;;;14.52;;
45806;SDS011;31507;51.494;7.518;2022-08-21T03:25:32;20.65;;;12.50;;
45806;SDS011;31507;51.494;7.518;2022-08-21T03:27:59;26.88;;;13.25;;
45806;SDS011;31507;51.494;7.518;2022-08-21T03:30:26;28.27;;;13.45;;
45806;SDS011;31507;51.494;7.518;2022-08-21T03:32:52;27.23;;;13.63;;
45806;SDS011;31507;51.494;7.518;2022-08-21T03:35:19;22.63;;;13.82;;
45806;SDS011;31507;51.494;7.518;2022-08-21T03:37:45;32.42;;;14.23;;
45806;SDS011;31507;51.494;7.518;2022-08-21T03:40:12;23.42;;;13.32;;
45806;SDS011;31507;51.494;7.518;2022-08-21T03:42:39;28.83;;;15.02;;
45806;SDS011;31507;51.494;7.518;2022-08-21T03:45:05;36.90;;;14.93;;
45806;SDS011;31507;51.494;7.518;2022-08-21T03:47:31;21.67;;;13.52;;
45806;SDS011;31507;51.494;7.518;2022-08-21T03:49:57;33.15;;;14.75;;
45806;SDS011;31507;51.494;7.518;2022-08-21T03:52:24;27.55;;;14.40;;
45806;SDS011;31507;51.494;7.518;2022-08-21T03:54:49;23.88;;;13.80;;
45806;SDS011;31507;51.494;7.518;2022-08-21T03:57:15;28.17;;;14.48;;
45806;SDS011;31507;51.494;7.518;2022-08-21T03:59:48;29.77;;;15.57;;
45806;SDS011;31507;51.494;7.518;2022-08-21T04:02:15;24.55;;;15.30;;
45806;SDS011;31507;51.494;7.518;2022-08-21T04:04:45;34.17;;;16.33;;
45806;SDS011;31507;51.494;7.518;2022-08-21T04:07:11;30.25;;;16.58;;
45806;SDS011;31507;51.494;7.518;2022-08-21T04:09:36;29.98;;;16.27;;
45806;SDS011;31507;51.494;7.518;2022-08-21T04:12:02;31.20;;;16.42;;
45806;SDS011;31507;51.494;7.518;2022-08-21T04:14:28;28.52;;;14.77;;
45806;SDS011;31507;51.494;7.518;2022-08-21T04:16:55;24.50;;;16.50;;
45806;SDS011;31507;51.494;7.518;2022-08-21T04:19:20;33.42;;;15.30;;
45806;SDS011;31507;51.494;7.518;2022-08-21T04:21:46;23.98;;;14.18;;
45806;SDS011;31507;51.494;7.518;2022-08-21T04:24:12;28.42;;;14.27;;
45806;SDS011;31507;51.494;7.518;2022-08-21T04:26:37;21.77;;;12.57;;
45806;SDS011;31507;51.494;7.518;2022-08-21T04:29:04;24.90;;;13.05;;
45806;SDS011;31507;51.494;7.518;2022-08-21T04:31:31;27.77;;;13.95;;
45806;SDS011;31507;51.494;7.518;2022-08-21T04:33:58;21.80;;;12.88;;
45806;SDS011;31507;51.494;7.518;2022-08-21T04:36:24;21.00;;;12.13;;
45806;SDS011;31507;51.494;7.518;2022-08-21T04:38:50;24.90;;;11.95;;
45806;SDS011;31507;51.494;7.518;2022-08-21T04:41:16;26.23;;;11.10;;
45806;SDS011;31507;51.494;7.518;2022-08-21T04:43:42;22.95;;;11.45;;
45806;SDS011;31507;51.494;7.518;2022-08-21T04:46:07;26.13;;;11.50;;
45806;SDS011;31507;51.494;7.518;2022-08-21T04:48:33;18.15;;;11.60;;
45806;SDS011;31507;51.494;7.518;2022-08-21T04:51:01;18.75;;;10.65;;
45806;SDS011;31507;51.494;7.518;2022-08-21T04:53:33;21.40;;;10.93;;
45806;SDS011;31507;51.494;7.518;2022-08-21T04:56:04;26.83;;;11.70;;
45806;SDS011;31507;51.494;7.518;2022-08-21T04:58:33;22.30;;;10.77;;
45806;SDS011;31507;51.494;7.518;2022-08-21T05:01:02;24.58;;;11.45;;
45806;SDS011;31507;51.494;7.518;2022-08-21T05:03:32;19.88;;;10.50;;
45806;SDS011;31507;51.494;7.518;2022-08-21T05:05:59;21.60;;;10.32;;
45806;SDS011;31507;51.494;7.518;2022-08-21T05:08:25;19.83;;;10.75;;
45806;SDS011;31507;51.494;7.518;2022-08-21T05:10:52;22.58;;;11.13;;
45806;SDS011;31507;51.494;7.518;2022-08-21T05:13:19;17.42;;;9.75;;
45806;SDS011;31507;51.494;7.518;2022-08-21T05:15:45;21.38;;;9.45;;
45806;SDS011;31507;51.494;7.518;2022-08-21T05:18:11;18.55;;;9.23;;
45806;SDS011;31507;51.494;7.518;2022-08-21T05:20:37;20.48;;;9.70;;
45806;SDS011;31507;51.494;7.518;2022-08-21T05:23:10;22.52;;;9.80;;
45806;SDS011;31507;51.494;7.518;2022-08-21T05:25:38;20.98;;;9.80;;
45806;SDS011;31507;51.494;7.518;2022-08-21T05:28:04;17.35;;;9.68;;
45806;SDS011;31507;51.494;7.518;2022-08-21T05:30:30;19.60;;;9.68;;
45806;SDS011;31507;51.494;7.518;2022-08-21T05:32:59;29.98;;;10.63;;
45806;SDS011;31507;51.494;7.518;2022-08-21T05:35:29;22.67;;;9.35;;
45806;SDS011;31507;51.494;7.518;2022-08-21T05:37:57;20.55;;;9.93;;
45806;SDS011;31507;51.494;7.518;2022-08-21T05:40:23;21.35;;;10.60;;
45806;SDS011;31507;51.494;7.518;2022-08-21T05:42:50;21.13;;;9.27;;
45806;SDS011;31507;51.494;7.518;2022-08-21T05:45:16;18.58;;;8.93;;
45806;SDS011;31507;51.494;7.518;2022-08-21T05:47:42;19.90;;;8.63;;
45806;SDS011;31507;51.494;7.518;2022-08-21T05:50:07;21.40;;;9.13;;
45806;SDS011;31507;51.494;7.518;2022-08-21T05:52:33;21.90;;;8.93;;
45806;SDS011;31507;51.494;7.518;2022-08-21T05:54:59;21.58;;;8.00;;
45806;SDS011;31507;51.494;7.518;2022-08-21T05:57:25;18.92;;;7.40;;
45806;SDS011;31507;51.494;7.518;2022-08-21T05:59:51;15.30;;;7.90;;
45806;SDS011;31507;51.494;7.518;2022-08-21T06:02:20;19.92;;;7.40;;
45806;SDS011;31507;51.494;7.518;2022-08-21T06:04:46;11.75;;;6.38;;
45806;SDS011;31507;51.494;7.518;2022-08-21T06:07:16;13.48;;;6.53;;
45806;SDS011;31507;51.494;7.518;2022-08-21T06:09:41;13.73;;;6.40;;
45806;SDS011;31507;51.494;7.518;2022-08-21T06:12:08;14.35;;;6.53;;
45806;SDS011;31507;51.494;7.518;2022-08-21T06:14:36;16.20;;;5.78;;
45806;SDS011;31507;51.494;7.518;2022-08-21T06:17:04;16.50;;;5.85;;
45806;SDS011;31507;51.494;7.518;2022-08-21T06:19:31;13.18;;;5.70;;
45806;SDS011;31507;51.494;7.518;2022-08-21T06:21:57;15.48;;;5.93;;
45806;SDS011;31507;51.494;7.518;2022-08-21T06:24:23;15.82;;;5.97;;
45806;SDS011;31507;51.494;7.518;2022-08-21T06:26:49;14.07;;;6.03;;
45806;SDS011;31507;51.494;7.518;2022-08-21T06:29:15;13.30;;;5.80;;
45806;SDS011;31507;51.494;7.518;2022-08-21T06:31:42;15.30;;;6.22;;
45806;SDS011;31507;51.494;7.518;2022-08-21T06:34:08;14.50;;;5.68;;
45806;SDS011;31507;51.494;7.518;2022-08-21T06:36:34;10.48;;;5.28;;
45806;SDS011;31507;51.494;7.518;2022-08-21T06:39:00;13.48;;;5.88;;
45806;SDS011;31507;51.494;7.518;2022-08-21T06:41:26;9.48;;;5.28;;
45806;SDS011;31507;51.494;7.518;2022-08-21T06:43:52;9.60;;;5.28;;
45806;SDS011;31507;51.494;7.518;2022-08-21T06:46:18;11.27;;;4.70;;
45806;SDS011;31507;51.494;7.518;2022-08-21T06:48:44;10.70;;;5.20;;
45806;SDS011;31507;51.494;7.518;2022-08-21T06:51:09;8.25;;;4.78;;
45806;SDS011;31507;51.494;7.518;2022-08-21T06:53:35;8.50;;;4.85;;
45806;SDS011;31507;51.494;7.518;2022-08-21T06:56:01;10.27;;;4.57;;
45806;SDS011;31507;51.494;7.518;2022-08-21T06:58:27;7.78;;;4.20;;
45806;SDS011;31507;51.494;7.518;2022-08-21T07:00:52;8.52;;;3.70;;
45806;SDS011;31507;51.494;7.518;2022-08-21T07:03:19;7.53;;;3.40;;
45806;SDS011;31507;51.494;7.518;2022-08-21T07:05:47;6.57;;;3.30;;
45806;SDS011;31507;51.494;7.518;2022-08-21T07:08:13;12.35;;;3.30;;
45806;SDS011;31507;51.494;7.518;2022-08-21T07:10:38;14.13;;;3.50;;
45806;SDS011;31507;51.494;7.518;2022-08-21T07:13:04;10.13;;;3.88;;
45806;SDS011;31507;51.494;7.518;2022-08-21T07:15:30;13.07;;;3.33;;
45806;SDS011;31507;51.494;7.518;2022-08-21T07:17:56;8.48;;;3.67;;
45806;SDS011;31507;51.494;7.518;2022-08-21T07:20:23;11.95;;;4.32;;
45806;SDS011;31507;51.494;7.518;2022-08-21T07:22:49;12.18;;;4.07;;
45806;SDS011;31507;51.494;7.518;2022-08-21T07:25:14;8.50;;;3.97;;
45806;SDS011;31507;51.494;7.518;2022-08-21T07:27:40;9.95;;;3.08;;
45806;SDS011;31507;51.494;7.518;2022-08-21T07:30:06;10.02;;;3.40;;
45806;SDS011;31507;51.494;7.518;2022-08-21T07:32:32;13.30;;;3.70;;
45806;SDS011;31507;51.494;7.518;2022-08-21T07:34:57;8.00;;;3.25;;
45806;SDS011;31507;51.494;7.518;2022-08-21T07:37:23;13.95;;;3.88;;
45806;SDS011;31507;51.494;7.518;2022-08-21T07:39:49;9.93;;;4.10;;
45806;SDS011;31507;51.494;7.518;2022-08-21T07:42:16;11.52;;;4.43;;
45806;SDS011;31507;51.494;7.518;2022-08-21T07:44:42;10.88;;;4.22;;
45806;SDS011;31507;51.494;7.518;2022-08-21T07:47:08;13.90;;;4.68;;
45806;SDS011;31507;51.494;7.518;2022-08-21T07:49:34;13.75;;;4.35;;
45806;SDS011;31507;51.494;7.518;2022-08-21T07:52:00;11.60;;;4.32;;
45806;SDS011;31507;51.494;7.518;2022-08-21T07:54:26;10.00;;;4.20;;
45806;SDS011;31507;51.494;7.518;2022-08-21T07:56:51;17.42;;;4.28;;
45806;SDS011;31507;51.494;7.518;2022-08-21T07:59:17;11.80;;;4.55;;
45806;SDS011;31507;51.494;7.518;2022-08-21T08:01:43;11.55;;;3.90;;
45806;SDS011;31507;51.494;7.518;2022-08-21T08:04:08;10.18;;;4.53;;
45806;SDS011;31507;51.494;7.518;2022-08-21T08:06:34;11.60;;;4.38;;
45806;SDS011;31507;51.494;7.518;2022-08-21T08:08:59;13.00;;;3.97;;
45806;SDS011;31507;51.494;7.518;2022-08-21T08:11:28;9.65;;;4.25;;
45806;SDS011;31507;51.494;7.518;2022-08-21T08:13:54;10.90;;;4.38;;
45806;SDS011;31507;51.494;7.518;2022-08-21T08:16:22;10.38;;;4.57;;
45806;SDS011;31507;51.494;7.518;2022-08-21T08:18:48;11.75;;;4.93;;
45806;SDS011;31507;51.494;7.518;2022-08-21T08:21:16;12.38;;;4.35;;
45806;SDS011;31507;51.494;7.518;2022-08-21T08:23:43;11.43;;;4.57;;
45806;SDS011;31507;51.494;7.518;2022-08-21T08:26:10;14.73;;;5.18;;
45806;SDS011;31507;51.494;7.518;2022-08-21T08:28:36;10.85;;;4.50;;
45806;SDS011;31507;51.494;7.518;2022-08-21T08:31:02;17.35;;;5.10;;
45806;SDS011;31507;51.494;7.518;2022-08-21T08:33:27;10.88;;;4.32;;
45806;SDS011;31507;51.494;7.518;2022-08-21T08:35:53;12.82;;;4.53;;
45806;SDS011;31507;51.494;7.518;2022-08-21T08:38:20;11.70;;;4.57;;
45806;SDS011;31507;51.494;7.518;2022-08-21T08:40:50;12.48;;;4.35;;
45806;SDS011;31507;51.494;7.518;2022-08-21T08:43:25;9.27;;;3.58;;
45806;SDS011;31507;51.494;7.518;2022-08-21T08:45:53;17.30;;;4.20;;
45806;SDS011;31507;51.494;7.518;2022-08-21T08:51:35;10.38;;;3.90;;
45806;SDS011;31507;51.494;7.518;2022-08-21T08:54:09;14.85;;;4.32;;
45806;SDS011;31507;51.494;7.518;2022-08-21T08:56:39;10.30;;;3.95;;
45806;SDS011;31507;51.494;7.518;2022-08-21T08:59:11;12.68;;;4.10;;
45806;SDS011;31507;51.494;7.518;2022-08-21T09:01:42;9.95;;;3.35;;
45806;SDS011;31507;51.494;7.518;2022-08-21T09:04:09;11.98;;;3.22;;
45806;SDS011;31507;51.494;7.518;2022-08-21T09:09:25;8.38;;;3.13;;
45806;SDS011;31507;51.494;7.518;2022-08-21T09:23:33;12.60;;;2.47;;
45806;SDS011;31507;51.494;7.518;2022-08-21T09:26:21;5.75;;;2.13;;
45806;SDS011;31507;51.494;7.518;2022-08-21T09:28:54;9.98;;;2.90;;
45806;SDS011;31507;51.494;7.518;2022-08-21T09:31:30;14.23;;;2.97;;
45806;SDS011;31507;51.494;7.518;2022-08-21T09:34:07;9.18;;;2.70;;
45806;SDS011;31507;51.494;7.518;2022-08-21T09:36:46;10.18;;;2.72;;
45806;SDS011;31507;51.494;7.518;2022-08-21T09:39:22;7.07;;;2.80;;
45806;SDS011;31507;51.494;7.518;2022-08-21T09:42:04;10.35;;;2.42;;
45806;SDS011;31507;51.494;7.518;2022-08-21T09:44:34;8.07;;;2.03;;
45806;SDS011;31507;51.494;7.518;2022-08-21T09:47:05;7.25;;;2.03;;
45806;SDS011;31507;51.494;7.518;2022-08-21T09:49:32;8.75;;;2.50;;
45806;SDS011;31507;51.494;7.518;2022-08-21T09:52:00;6.47;;;2.30;;
45806;SDS011;31507;51.494;7.518;2022-08-21T09:54:34;7.95;;;2.17;;
45806;SDS011;31507;51.494;7.518;2022-08-21T09:57:14;7.03;;;2.22;;
45806;SDS011;31507;51.494;7.518;2022-08-21T10:00:18;7.30;;;2.05;;
45806;SDS011;31507;51.494;7.518;2022-08-21T10:03:08;8.80;;;3.05;;
45806;SDS011;31507;51.494;7.518;2022-08-21T10:11:38;5.90;;;2.42;;
45806;SDS011;31507;51.494;7.518;2022-08-21T10:25:06;6.45;;;2.20;;
45806;SDS011;31507;51.494;7.518;2022-08-21T10:27:54;6.43;;;2.08;;
45806;SDS011;31507;51.494;7.518;2022-08-21T10:30:44;8.57;;;2.38;;
45806;SDS011;31507;51.494;7.518;2022-08-21T10:47:05;8.90;;;2.05;;
45806;SDS011;31507;51.494;7.518;2022-08-21T11:00:21;6.07;;;2.20;;
45806;SDS011;31507;51.494;7.518;2022-08-21T11:05:52;6.97;;;2.20;;
45806;SDS011;31507;51.494;7.518;2022-08-21T11:16:02;6.07;;;2.05;;
45806;SDS011;31507;51.494;7.518;2022-08-21T11:18:44;6.60;;;1.88;;
45806;SDS011;31507;51.494;7.518;2022-08-21T11:26:41;5.97;;;1.58;;
45806;SDS011;31507;51.494;7.518;2022-08-21T11:29:40;6.68;;;1.65;;
45806;SDS011;31507;51.494;7.518;2022-08-21T11:38:01;5.18;;;1.80;;
45806;SDS011;31507;51.494;7.518;2022-08-21T11:43:35;7.85;;;1.70;;
45806;SDS011;31507;51.494;7.518;2022-08-21T11:46:23;13.02;;;1.88;;
45806;SDS011;31507;51.494;7.518;2022-08-21T11:54:25;4.60;;;1.63;;
45806;SDS011;31507;51.494;7.518;2022-08-21T11:57:19;5.28;;;1.73;;
45806;SDS011;31507;51.494;7.518;2022-08-21T12:02:30;6.43;;;1.67;;
45806;SDS011;31507;51.494;7.518;2022-08-21T12:05:00;4.95;;;1.48;;
45806;SDS011;31507;51.494;7.518;2022-08-21T12:07:34;5.57;;;1.80;;
45806;SDS011;31507;51.494;7.518;2022-08-21T12:10:08;7.68;;;1.55;;
45806;SDS011;31507;51.494;7.518;2022-08-21T12:12:41;3.78;;;1.25;;
45806;SDS011;31507;51.494;7.518;2022-08-21T12:23:15;4.45;;;1.98;;
45806;SDS011;31507;51.494;7.518;2022-08-21T12:25:46;3.97;;;1.45;;
45806;SDS011;31507;51.494;7.518;2022-08-21T12:28:25;3.50;;;1.35;;
45806;SDS011;31507;51.494;7.518;2022-08-21T12:30:51;5.25;;;1.35;;
45806;SDS011;31507;51.494;7.518;2022-08-21T12:35:45;5.38;;;1.40;;
45806;SDS011;31507;51.494;7.518;2022-08-21T12:38:15;4.75;;;1.52;;
45806;SDS011;31507;51.494;7.518;2022-08-21T12:41:01;2.70;;;1.27;;
45806;SDS011;31507;51.494;7.518;2022-08-21T12:43:35;5.03;;;1.40;;
45806;SDS011;31507;51.494;7.518;2022-08-21T12:46:12;5.05;;;1.00;;
45806;SDS011;31507;51.494;7.518;2022-08-21T12:48:52;5.40;;;1.45;;
45806;SDS011;31507;51.494;7.518;2022-08-21T12:51:23;3.40;;;1.35;;
45806;SDS011;31507;51.494;7.518;2022-08-21T12:54:03;4.05;;;1.30;;
45806;SDS011;31507;51.494;7.518;2022-08-21T12:56:30;4.47;;;1.10;;
45806;SDS011;31507;51.494;7.518;2022-08-21T12:59:04;3.40;;;1.30;;
45806;SDS011;31507;51.494;7.518;2022-08-21T13:01:43;5.47;;;1.73;;
45806;SDS011;31507;51.494;7.518;2022-08-21T13:04:15;5.18;;;1.30;;
45806;SDS011;31507;51.494;7.518;2022-08-21T13:06:45;2.58;;;1.17;;
45806;SDS011;31507;51.494;7.518;2022-08-21T13:09:15;2.35;;;1.15;;
45806;SDS011;31507;51.494;7.518;2022-08-21T13:11:43;4.70;;;1.35;;
45806;SDS011;31507;51.494;7.518;2022-08-21T13:14:30;4.07;;;1.35;;
45806;SDS011;31507;51.494;7.518;2022-08-21T13:17:06;5.15;;;1.63;;
45806;SDS011;31507;51.494;7.518;2022-08-21T13:19:32;3.85;;;1.50;;
45806;SDS011;31507;51.494;7.518;2022-08-21T13:21:59;4.53;;;1.20;;
45806;SDS011;31507;51.494;7.518;2022-08-21T13:24:34;3.30;;;1.35;;
45806;SDS011;31507;51.494;7.518;2022-08-21T13:27:01;3.05;;;1.15;;
45806;SDS011;31507;51.494;7.518;2022-08-21T13:29:32;3.90;;;1.25;;
45806;SDS011;31507;51.494;7.518;2022-08-21T13:32:02;4.97;;;1.42;;
45806;SDS011;31507;51.494;7.518;2022-08-21T13:34:31;4.07;;;1.20;;
45806;SDS011;31507;51.494;7.518;2022-08-21T13:37:08;2.05;;;1.00;;
45806;SDS011;31507;51.494;7.518;2022-08-21T13:39:36;3.50;;;1.08;;
45806;SDS011;31507;51.494;7.518;2022-08-21T13:42:03;3.33;;;1.27;;
45806;SDS011;31507;51.494;7.518;2022-08-21T13:44:41;7.93;;;1.30;;
45806;SDS011;31507;51.494;7.518;2022-08-21T13:47:09;3.65;;;1.00;;
45806;SDS011;31507;51.494;7.518;2022-08-21T13:49:39;2.28;;;0.85;;
45806;SDS011;31507;51.494;7.518;2022-08-21T13:52:21;1.50;;;0.80;;
45806;SDS011;31507;51.494;7.518;2022-08-21T13:54:52;9.23;;;1.38;;
45806;SDS011;31507;51.494;7.518;2022-08-21T13:57:31;1.42;;;0.60;;
45806;SDS011;31507;51.494;7.518;2022-08-21T14:02:50;2.75;;;1.13;;
45806;SDS011;31507;51.494;7.518;2022-08-21T14:05:27;2.58;;;0.88;;
45806;SDS011;31507;51.494;7.518;2022-08-21T14:08:01;3.30;;;1.15;;
45806;SDS011;31507;51.494;7.518;2022-08-21T14:10:35;2.75;;;1.08;;
45806;SDS011;31507;51.494;7.518;2022-08-21T14:13:06;2.92;;;0.98;;
45806;SDS011;31507;51.494;7.518;2022-08-21T14:15:33;6.00;;;1.00;;
45806;SDS011;31507;51.494;7.518;2022-08-21T14:18:07;2.33;;;0.90;;
45806;SDS011;31507;51.494;7.518;2022-08-21T14:20:37;2.05;;;1.00;;
45806;SDS011;31507;51.494;7.518;2022-08-21T14:23:03;2.95;;;1.10;;
45806;SDS011;31507;51.494;7.518;2022-08-21T14:25:39;4.07;;;1.02;;
45806;SDS011;31507;51.494;7.518;2022-08-21T14:30:50;1.58;;;1.00;;
45806;SDS011;31507;51.494;7.518;2022-08-21T14:33:27;4.65;;;1.25;;
45806;SDS011;31507;51.494;7.518;2022-08-21T14:35:55;2.45;;;0.98;;
45806;SDS011;31507;51.494;7.518;2022-08-21T14:38:22;3.47;;;1.40;;
45806;SDS011;31507;51.494;7.518;2022-08-21T14:40:51;7.47;;;1.30;;
45806;SDS011;31507;51.494;7.518;2022-08-21T14:43:19;2.58;;;1.02;;
45806;SDS011;31507;51.494;7.518;2022-08-21T14:45:45;5.32;;;4.45;;
45806;SDS011;31507;51.494;7.518;2022-08-21T14:48:12;3.20;;;2.00;;
45806;SDS011;31507;51.494;7.518;2022-08-21T14:50:38;2.95;;;1.27;;
45806;SDS011;31507;51.494;7.518;2022-08-21T14:53:04;3.50;;;1.05;;
45806;SDS011;31507;51.494;7.518;2022-08-21T14:55:30;3.50;;;1.65;;
45806;SDS011;31507;51.494;7.518;2022-08-21T14:58:16;3.85;;;2.25;;
45806;SDS011;31507;51.494;7.518;2022-08-21T15:00:42;4.53;;;1.85;;
45806;SDS011;31507;51.494;7.518;2022-08-21T15:03:08;4.18;;;1.25;;
45806;SDS011;31507;51.494;7.518;2022-08-21T15:05:33;4.03;;;0.93;;
45806;SDS011;31507;51.494;7.518;2022-08-21T15:07:59;4.50;;;1.45;;
45806;SDS011;31507;51.494;7.518;2022-08-21T15:10:25;5.65;;;1.75;;
45806;SDS011;31507;51.494;7.518;2022-08-21T15:12:51;3.70;;;1.33;;
45806;SDS011;31507;51.494;7.518;2022-08-21T15:15:16;2.75;;;1.33;;
45806;SDS011;31507;51.494;7.518;2022-08-21T15:17:42;2.58;;;1.17;;
45806;SDS011;31507;51.494;7.518;2022-08-21T15:20:08;3.65;;;1.40;;
45806;SDS011;31507;51.494;7.518;2022-08-21T15:22:34;5.20;;;1.67;;
45806;SDS011;31507;51.494;7.518;2022-08-21T15:25:00;3.38;;;1.15;;
45806;SDS011;31507;51.494;7.518;2022-08-21T15:27:27;2.58;;;1.17;;
45806;SDS011;31507;51.494;7.518;2022-08-21T15:29:53;2.25;;;1.25;;
45806;SDS011;31507;51.494;7.518;2022-08-21T15:32:20;2.65;;;1.02;;
45806;SDS011;31507;51.494;7.518;2022-08-21T15:34:52;3.78;;;1.48;;
45806;SDS011;31507;51.494;7.518;2022-08-21T15:37:19;2.60;;;1.10;;
45806;SDS011;31507;51.494;7.518;2022-08-21T15:39:45;7.05;;;1.50;;
45806;SDS011;31507;51.494;7.518;2022-08-21T15:42:11;4.47;;;1.50;;
45806;SDS011;31507;51.494;7.518;2022-08-21T15:44:38;3.15;;;1.40;;
45806;SDS011;31507;51.494;7.518;2022-08-21T15:47:05;5.05;;;1.30;;
45806;SDS011;31507;51.494;7.518;2022-08-21T15:49:32;6.20;;;1.30;;
45806;SDS011;31507;51.494;7.518;2022-08-21T15:51:57;5.82;;;1.30;;
45806;SDS011;31507;51.494;7.518;2022-08-21T15:54:23;3.30;;;1.27;;
45806;SDS011;31507;51.494;7.518;2022-08-21T15:56:49;2.35;;;1.00;;
45806;SDS011;31507;51.494;7.518;2022-08-21T15:59:19;4.85;;;1.25;;
45806;SDS011;31507;51.494;7.518;2022-08-21T16:01:47;3.05;;;1.30;;
45806;SDS011;31507;51.494;7.518;2022-08-21T16:04:15;1.95;;;1.15;;
45806;SDS011;31507;51.494;7.518;2022-08-21T16:06:47;3.25;;;1.40;;
45806;SDS011;31507;51.494;7.518;2022-08-21T16:09:13;3.63;;;1.02;;
45806;SDS011;31507;51.494;7.518;2022-08-21T16:11:40;5.53;;;1.40;;
45806;SDS011;31507;51.494;7.518;2022-08-21T16:14:06;3.30;;;1.30;;
45806;SDS011;31507;51.494;7.518;2022-08-21T16:16:32;3.67;;;1.50;;
45806;SDS011;31507;51.494;7.518;2022-08-21T16:18:59;2.47;;;1.30;;
45806;SDS011;31507;51.494;7.518;2022-08-21T16:21:27;4.32;;;1.70;;
45806;SDS011;31507;51.494;7.518;2022-08-21T16:23:52;4.72;;;1.33;;
45806;SDS011;31507;51.494;7.518;2022-08-21T16:26:18;4.13;;;1.27;;
45806;SDS011;31507;51.494;7.518;2022-08-21T16:28:44;5.05;;;1.50;;
45806;SDS011;31507;51.494;7.518;2022-08-21T16:31:10;3.10;;;1.38;;
45806;SDS011;31507;51.494;7.518;2022-08-21T16:33:38;3.42;;;1.52;;
45806;SDS011;31507;51.494;7.518;2022-08-21T16:36:06;4.65;;;1.63;;